SCC: Laguna Seca: GS qualifying times

Pos Num Class Team Time Gap To 1st Speed --- --- ----- ------------------------------ ---------- ------- ------- ------- 1. 97 GS Turner Motorsport 1:36.485 83.503 2. 99...

Pos Num Class Team                                 Time     Gap  To 1st   Speed
--- --- ----- ------------------------------ ---------- ------- ------- -------
 1.  97 GS    Turner Motorsport                1:36.485                  83.503
 2.  99 GS    Automatic Racing                 1:36.621   0.136   0.136  83.386
 3.  52 GS    Rehagen Racing                   1:37.126   0.505   0.641  82.952
 4.  55 GS    Hyper Sport                      1:37.151   0.025   0.666  82.931
 5.  33 GS    Playboy Racing                   1:37.218   0.067   0.733  82.874
 6.  09 GS    Automatic Racing                 1:37.247   0.029   0.762  82.849
 7.  79 GS    Kinetic Motorsports              1:37.387   0.140   0.902  82.730
 8.  42 GS    TRG                              1:37.409   0.022   0.924  82.711
 9.   5 GS    Blackforest Motorsports          1:37.492   0.083   1.007  82.641
10.  90 GS    Automatic Racing                 1:37.600   0.108   1.115  82.549
11.  88 GS    LNS Motorsport                   1:37.627   0.027   1.142  82.526
12.  91 GS    Automatic Racing                 1:37.707   0.080   1.222  82.459
13.  41 GS    TRG                              1:37.804   0.097   1.319  82.377
14.  20 GS    Horsepower Ranch                 1:37.838   0.034   1.353  82.348
15.  26 GS    Fiorano/C-MAX Racing             1:37.839   0.001   1.354  82.348
16.  83 GS    BGB Motorsports                  1:37.906   0.067   1.421  82.291
17.   4 GS    Blackforest Motorsports          1:37.953   0.047   1.468  82.252
18.  37 GS    JBS Racing                       1:38.007   0.054   1.522  82.206
19.  80 GS    Kinetic Motorsports              1:38.033   0.026   1.548  82.185
20.  43 GS    ASC Motorsports                  1:38.177   0.144   1.692  82.064
21.  25 GS    Fiorano/C-MAX Racing             1:38.245   0.068   1.760  82.007
22.  49 GS    Marcus Motorsports               1:38.328   0.083   1.843  81.938
23. 154 GS    Jim Click Racing                 1:38.461   0.133   1.976  81.827
24.  96 GS    Turner Motorsport                1:38.525   0.064   2.040  81.774
25.  11 GS    Southwest Racers Group           1:38.699   0.174   2.214  81.630
26.  54 GS    Hyper Sport                      1:38.714   0.015   2.229  81.618
27.  40 GS    TRG                              1:38.889   0.175   2.404  81.473
28.  17 GS    Team Centurion                   1:39.050   0.161   2.565  81.341
29.  59 GS    Rehagen Racing                   1:39.653   0.603   3.168  80.849
30. 137 GS    JBS Motorsports                  1:39.852   0.199   3.367  80.687
31.  87 GS    LNS Motorsport                   1:40.024   0.172   3.539  80.549
32.  89 GS    LNS Motorsport                   1:40.366   0.342   3.881  80.274
33. 150 GS    Jim Click Racing                 1:40.391   0.025   3.906  80.254
34.   6 GS    Blackforest Motorsports          1:40.791   0.400   4.306  79.936
35.  46 GS    Fall-Line Motorsports            1:40.973   0.182   4.488  79.792
36.  77 GS    Blackforest Motorsports          1:40.982   0.009   4.497  79.785
37.  78 GS    Kinetic Motorsports              1:40.992   0.010   4.507  79.777
38.  60 GS    Horsepower Ranch                 1:41.380   0.388   4.895  79.471
39.  38 GS    BGB Motorsports                  1:42.169   0.789   5.684  78.858
40.  36 GS    NoHotWire Racing                 1:43.141   0.972   6.656  78.114
41.  28 GS    Fall-Line Motorsports             No Time
42.  39 GS    TRG                               No Time

Be part of something big

Write a comment
Show comments
About this article
Series Grand-Am
Drivers Jim Click
Teams Kinetic Motorsports , Rehagen Racing , Turner Motorsport , Automatic Racing , Fall-Line Motorsports